createdAt,value
2017-08-03T00:01:46.619Z,97454.50
2017-08-03T00:03:49.747Z,97459.39
2017-08-03T00:05:52.887Z,97464.98
2017-08-03T00:07:56.253Z,97465.24
2017-08-03T00:10:00.125Z,97460.91
2017-08-03T00:12:03.826Z,97469.33
2017-08-03T00:14:07.226Z,97469.66
2017-08-03T00:16:10.636Z,97471.98
2017-08-03T00:18:14.082Z,97467.48
2017-08-03T00:20:17.448Z,97469.66
2017-08-03T00:22:20.588Z,97470.62
2017-08-03T00:24:24.044Z,97479.89
2017-08-03T00:26:27.701Z,97478.79
2017-08-03T00:28:31.332Z,97474.70
2017-08-03T00:30:35.068Z,97472.38
2017-08-03T00:32:38.646Z,97472.94
2017-08-03T00:34:42.109Z,97476.88
2017-08-03T00:36:45.512Z,97471.98
2017-08-03T00:38:48.870Z,97473.34
2017-08-03T00:40:52.416Z,97476.06
2017-08-03T00:42:55.764Z,97475.66
2017-08-03T00:44:59.862Z,97473.89
2017-08-03T00:47:03.331Z,97467.48
2017-08-03T00:49:06.616Z,97473.49
2017-08-03T00:51:10.005Z,97473.75
2017-08-03T00:53:13.428Z,97467.09
2017-08-03T00:55:16.585Z,97465.72
2017-08-03T00:57:19.985Z,97469.81
2017-08-03T00:59:23.458Z,97465.72
2017-08-03T01:01:27.051Z,97463.00
2017-08-03T01:03:30.544Z,97464.91
2017-08-03T01:05:33.951Z,97463.95
2017-08-03T01:07:37.303Z,97468.45
2017-08-03T01:09:40.797Z,97472.94
2017-08-03T01:11:44.195Z,97464.91
2017-08-03T01:13:48.335Z,97459.21
2017-08-03T01:15:51.945Z,97459.06
2017-08-03T01:17:55.277Z,97456.34
2017-08-03T01:19:58.693Z,97456.75
2017-08-03T01:22:02.239Z,97453.62
2017-08-03T01:24:05.603Z,97453.62
2017-08-03T01:26:08.870Z,97454.17
2017-08-03T01:28:12.321Z,97451.45
2017-08-03T01:30:15.662Z,97451.45
2017-08-03T01:32:18.976Z,97452.25
2017-08-03T01:34:22.445Z,97452.41
2017-08-03T01:36:26.024Z,97446.41
2017-08-03T01:38:29.346Z,97447.36
2017-08-03T01:40:32.859Z,97442.31
2017-08-03T01:42:36.214Z,97448.32
2017-08-03T01:44:39.487Z,97442.88
2017-08-03T01:46:47.125Z,97440.15
2017-08-03T01:48:50.792Z,97440.55
2017-08-03T01:50:54.343Z,97437.02
2017-08-03T01:52:57.881Z,97435.25
2017-08-03T01:55:01.770Z,97438.97
2017-08-03T01:57:05.385Z,97429.44
2017-08-03T01:59:08.666Z,97429.80
2017-08-03T02:01:12.033Z,97430.39
2017-08-03T02:03:15.088Z,97426.71
2017-08-03T02:05:18.465Z,97425.34
2017-08-03T02:07:22.133Z,97421.81
2017-08-03T02:09:25.430Z,97424.54
2017-08-03T02:11:28.784Z,97426.30
2017-08-03T02:13:31.926Z,97424.95
2017-08-03T02:15:35.128Z,97423.98
2017-08-03T02:17:38.322Z,97421.81
2017-08-03T02:19:41.672Z,97421.41
2017-08-03T02:21:49.940Z,97420.86
2017-08-03T02:23:53.537Z,97420.45
2017-08-03T02:25:57.736Z,97423.17
2017-08-03T02:28:01.090Z,97421.81
2017-08-03T02:30:04.549Z,97418.69
2017-08-03T02:32:07.865Z,97422.77
2017-08-03T02:34:11.130Z,97419.80
2017-08-03T02:36:14.615Z,97419.24
2017-08-03T02:38:18.240Z,97418.84
2017-08-03T02:40:22.168Z,97419.64
2017-08-03T02:42:25.670Z,97417.87
2017-08-03T02:44:29.072Z,97418.44
2017-08-03T02:46:32.508Z,97415.28
2017-08-03T02:48:35.947Z,97418.00
2017-08-03T02:50:39.481Z,97414.75
2017-08-03T02:52:42.868Z,97417.59
2017-08-03T02:54:46.142Z,97419.80
2017-08-03T02:56:50.224Z,97416.11
2017-08-03T02:58:53.577Z,97418.00
2017-08-03T03:00:56.691Z,97410.38
2017-08-03T03:02:59.834Z,97407.11
2017-08-03T03:05:03.016Z,97405.49
2017-08-03T03:07:07.162Z,97410.94
2017-08-03T03:09:10.638Z,97407.44
2017-08-03T03:11:13.854Z,97409.58
2017-08-03T03:13:17.044Z,97409.20
2017-08-03T03:15:20.445Z,97409.76
2017-08-03T03:17:24.044Z,97406.48
2017-08-03T03:19:27.685Z,97404.31
2017-08-03T03:21:31.079Z,97400.78
2017-08-03T03:23:34.393Z,97402.95
2017-08-03T03:25:37.872Z,97405.27
2017-08-03T03:27:41.149Z,97406.22
2017-08-03T03:29:44.476Z,97404.31
2017-08-03T03:31:48.021Z,97400.38
2017-08-03T03:33:51.875Z,97397.25
2017-08-03T03:35:55.453Z,97402.69
2017-08-03T03:37:58.959Z,97399.56
2017-08-03T03:40:02.340Z,97393.72
2017-08-03T03:42:05.605Z,97403.09
2017-08-03T03:44:09.335Z,97408.14
2017-08-03T03:46:28.407Z,97409.09
2017-08-03T03:48:46.849Z,97406.78
2017-08-03T03:51:05.157Z,97406.92
2017-08-03T03:53:23.452Z,97403.66
2017-08-03T03:55:41.913Z,97400.13
2017-08-03T03:58:03.584Z,97400.52
2017-08-03T04:00:21.942Z,97396.44
2017-08-03T04:02:40.604Z,97389.78
2017-08-03T04:04:59.297Z,97390.36
2017-08-03T04:07:17.351Z,97397.17
2017-08-03T04:09:35.815Z,97396.99
2017-08-03T04:11:53.930Z,97399.89
2017-08-03T04:14:12.146Z,97393.86
2017-08-03T04:16:30.189Z,97390.36
2017-08-03T04:18:48.411Z,97388.59
2017-08-03T04:21:06.460Z,97394.05
2017-08-03T04:23:24.514Z,97398.12
2017-08-03T04:25:42.905Z,97389.16
2017-08-03T04:28:01.218Z,97389.16
2017-08-03T04:30:19.615Z,97392.84
2017-08-03T04:32:38.021Z,97390.52
2017-08-03T04:34:56.441Z,97397.07
2017-08-03T04:37:14.465Z,97394.20
2017-08-03T04:39:32.604Z,97399.79
2017-08-03T04:41:51.816Z,97407.56
2017-08-03T04:43:55.024Z,97404.03
2017-08-03T04:45:58.157Z,97406.59
2017-08-03T04:48:01.312Z,97398.98
2017-08-03T04:50:04.669Z,97402.66
2017-08-03T04:52:08.291Z,97408.66
2017-08-03T04:54:11.378Z,97404.03
2017-08-03T04:56:14.584Z,97402.66
2017-08-03T04:58:17.712Z,97399.13
2017-08-03T05:00:20.722Z,97404.98
2017-08-03T05:02:23.718Z,97403.22
2017-08-03T05:04:26.864Z,97406.12
2017-08-03T05:06:30.237Z,97412.20
2017-08-03T05:08:33.267Z,97412.93
2017-08-03T05:10:36.535Z,97411.97
2017-08-03T05:12:39.582Z,97417.97
2017-08-03T05:14:43.480Z,97420.14
2017-08-03T05:16:46.541Z,97408.59
2017-08-03T05:18:49.845Z,97417.16
2017-08-03T05:20:53.094Z,97410.36
2017-08-03T05:22:56.568Z,97412.20
2017-08-03T05:24:59.930Z,97415.25
2017-08-03T05:27:02.968Z,97413.48
2017-08-03T05:29:06.107Z,97412.64
2017-08-03T05:31:09.124Z,97412.14
2017-08-03T05:33:12.319Z,97410.92
2017-08-03T05:35:15.470Z,97415.13
2017-08-03T05:37:18.457Z,97420.71
2017-08-03T05:39:21.571Z,97421.66
2017-08-03T05:41:25.115Z,97414.56
2017-08-03T05:43:28.249Z,97419.31
2017-08-03T05:45:31.264Z,97419.94
2017-08-03T05:47:35.566Z,97419.39
2017-08-03T05:49:39.087Z,97421.30
2017-08-03T05:51:42.515Z,97421.70
2017-08-03T05:53:46.026Z,97411.77
2017-08-03T05:55:49.009Z,97416.66
2017-08-03T05:57:54.995Z,97421.15
2017-08-03T05:59:58.066Z,97427.15
2017-08-03T06:02:01.118Z,97429.31
2017-08-03T06:04:04.191Z,97430.83
2017-08-03T06:06:07.331Z,97427.55
2017-08-03T06:08:10.459Z,97430.68
2017-08-03T06:10:13.533Z,97417.06
2017-08-03T06:12:17.315Z,97425.78
2017-08-03T06:14:20.783Z,97427.95
2017-08-03T06:16:23.826Z,97433.95
2017-08-03T06:18:27.514Z,97426.34
2017-08-03T06:20:30.579Z,97430.42
2017-08-03T06:22:33.679Z,97428.11
2017-08-03T06:24:37.142Z,97427.55
2017-08-03T06:26:40.248Z,97424.98
2017-08-03T06:28:43.384Z,97423.88
2017-08-03T06:30:46.591Z,97414.09
2017-08-03T06:32:49.711Z,97423.47
2017-08-03T06:34:52.758Z,97425.64
2017-08-03T06:36:55.871Z,97425.64
2017-08-03T06:38:58.935Z,97436.67
2017-08-03T06:41:02.029Z,97436.12
2017-08-03T06:43:05.209Z,97429.31
2017-08-03T06:45:08.243Z,97434.21
2017-08-03T06:47:11.284Z,97431.48
2017-08-03T06:49:15.069Z,97437.19
2017-08-03T06:51:18.153Z,97441.67
2017-08-03T06:53:21.581Z,97437.59
2017-08-03T06:55:25.476Z,97443.81
2017-08-03T06:57:28.759Z,97436.05
2017-08-03T06:59:31.815Z,97443.27
2017-08-03T07:01:35.356Z,97441.91
2017-08-03T07:03:38.635Z,97442.86
2017-08-03T07:05:41.843Z,97446.39
2017-08-03T07:07:45.422Z,97440.95
2017-08-03T07:09:48.419Z,97440.80
2017-08-03T07:11:51.907Z,97439.69
2017-08-03T07:13:57.765Z,97434.65
2017-08-03T07:16:00.850Z,97434.47
2017-08-03T07:18:04.676Z,97438.55
2017-08-03T07:20:07.839Z,97440.31
2017-08-03T07:22:10.900Z,97440.17
2017-08-03T07:24:13.877Z,97445.06
2017-08-03T07:26:16.940Z,97445.06
2017-08-03T07:28:19.966Z,97448.19
2017-08-03T07:30:23.064Z,97447.45
2017-08-03T07:32:26.862Z,97443.77
2017-08-03T07:34:29.982Z,97440.50
2017-08-03T07:36:33.249Z,97444.44
2017-08-03T07:38:36.918Z,97446.20
2017-08-03T07:40:40.162Z,97446.45
2017-08-03T07:42:43.181Z,97443.00
2017-08-03T07:44:47.241Z,97444.22
2017-08-03T07:46:50.590Z,97441.48
2017-08-03T07:48:53.983Z,97445.28
2017-08-03T07:50:57.358Z,97445.91
2017-08-03T07:53:00.937Z,97441.97
2017-08-03T07:55:04.107Z,97443.84
2017-08-03T07:57:07.755Z,97438.06
2017-08-03T07:59:10.992Z,97442.95
2017-08-03T08:01:14.023Z,97443.77
2017-08-03T08:03:17.439Z,97441.12
2017-08-03T08:05:20.852Z,97440.16
2017-08-03T08:07:24.304Z,97434.56
2017-08-03T08:09:27.957Z,97433.05
2017-08-03T08:11:30.956Z,97435.30
2017-08-03T08:13:34.030Z,97438.86
2017-08-03T08:15:37.618Z,97431.09
2017-08-03T08:17:40.655Z,97438.97
2017-08-03T08:19:43.680Z,97434.70
2017-08-03T08:21:46.794Z,97437.12
2017-08-03T08:23:49.870Z,97435.28
2017-08-03T08:25:53.789Z,97427.77
2017-08-03T08:27:58.700Z,97428.98
2017-08-03T08:30:03.633Z,97437.23
2017-08-03T08:32:15.062Z,97426.69
2017-08-03T08:34:20.084Z,97429.59
2017-08-03T08:36:23.168Z,97430.39
2017-08-03T08:38:30.029Z,97429.94
2017-08-03T08:40:33.585Z,97429.23
2017-08-03T08:42:37.775Z,97434.34
2017-08-03T08:44:40.799Z,97422.01
2017-08-03T08:46:44.118Z,97424.59
2017-08-03T08:48:47.234Z,97425.95
2017-08-03T08:50:50.430Z,97425.21
2017-08-03T08:52:55.469Z,97426.83
2017-08-03T08:54:58.586Z,97422.99
2017-08-03T08:57:03.127Z,97427.30
2017-08-03T08:59:06.495Z,97422.51
2017-08-03T09:01:09.479Z,97420.44
2017-08-03T09:03:12.629Z,97419.48
2017-08-03T09:05:19.747Z,97424.45
2017-08-03T09:07:24.574Z,97412.03
2017-08-03T09:09:30.782Z,97421.09
2017-08-03T09:11:33.893Z,97416.04
2017-08-03T09:13:38.682Z,97414.34
2017-08-03T09:15:42.412Z,97416.92
2017-08-03T09:17:47.857Z,97418.53
2017-08-03T09:19:50.981Z,97419.16
2017-08-03T09:21:59.946Z,97415.32
2017-08-03T09:24:04.314Z,97421.65
2017-08-03T09:26:08.999Z,97416.06
2017-08-03T09:28:12.236Z,97418.05
2017-08-03T09:30:15.299Z,97417.56
2017-08-03T09:32:21.360Z,97415.34
2017-08-03T09:34:28.061Z,97409.16
2017-08-03T09:36:31.479Z,97419.34
2017-08-03T09:38:38.038Z,97412.38
2017-08-03T09:40:45.597Z,97411.86
2017-08-03T09:42:49.198Z,97406.62
2017-08-03T09:44:52.196Z,97405.11
2017-08-03T09:47:18.162Z,97401.67
2017-08-03T09:49:43.282Z,97397.25
2017-08-03T09:52:05.715Z,97398.06
2017-08-03T09:54:26.758Z,97389.73
2017-08-03T09:56:48.532Z,97391.34
2017-08-03T09:59:11.293Z,97386.92
2017-08-03T10:01:32.625Z,97386.92
2017-08-03T10:03:58.192Z,97375.30
2017-08-03T10:06:20.261Z,97385.06
2017-08-03T10:08:41.633Z,97368.55
2017-08-03T10:11:07.182Z,97366.63
2017-08-03T10:13:31.134Z,97360.62
2017-08-03T10:15:56.971Z,97358.30
2017-08-03T10:18:21.917Z,97358.55
2017-08-03T10:20:41.346Z,97355.64
2017-08-03T10:23:02.375Z,97356.85
2017-08-03T10:25:20.590Z,97351.00
2017-08-03T10:27:38.802Z,97351.65
2017-08-03T10:29:56.846Z,97343.31
2017-08-03T10:32:15.430Z,97343.31
2017-08-03T10:34:33.645Z,97337.28
2017-08-03T10:36:51.771Z,97332.07
2017-08-03T10:39:10.021Z,97336.97
2017-08-03T10:41:28.234Z,97332.32
2017-08-03T10:43:46.375Z,97325.91
2017-08-03T10:46:06.907Z,97323.00
2017-08-03T10:48:25.183Z,97323.40
2017-08-03T10:50:43.277Z,97324.20
2017-08-03T10:53:01.577Z,97317.79
2017-08-03T10:55:19.717Z,97314.11
2017-08-03T10:57:37.791Z,97314.51
2017-08-03T10:59:56.524Z,97304.56
2017-08-03T11:02:14.743Z,97314.91
2017-08-03T11:04:32.814Z,97308.50
2017-08-03T11:06:51.170Z,97301.53
2017-08-03T11:09:09.408Z,97314.36
2017-08-03T11:11:27.496Z,97305.37
2017-08-03T11:13:45.690Z,97298.21
2017-08-03T11:16:03.833Z,97297.99
2017-08-03T11:18:22.000Z,97294.71
2017-08-03T11:20:40.595Z,97292.94
2017-08-03T11:22:58.691Z,97293.56
2017-08-03T11:25:16.794Z,97293.97
2017-08-03T11:27:35.013Z,97287.30
2017-08-03T11:29:48.207Z,97279.52
2017-08-03T11:32:06.345Z,97283.21
2017-08-03T11:34:24.557Z,97279.93
2017-08-03T11:36:42.688Z,97277.20
2017-08-03T11:39:00.725Z,97273.11
2017-08-03T11:41:18.942Z,97260.62
2017-08-03T11:43:37.096Z,97263.16
2017-08-03T11:45:55.235Z,97260.84
2017-08-03T11:48:13.991Z,97254.98
2017-08-03T11:50:32.101Z,97254.02
2017-08-03T11:52:50.404Z,97250.73
2017-08-03T11:55:08.609Z,97242.16
2017-08-03T11:57:26.753Z,97241.34
2017-08-03T11:59:44.981Z,97241.19
2017-08-03T12:02:03.577Z,97233.56
2017-08-03T12:04:21.698Z,97234.77
2017-08-03T12:06:39.813Z,97232.61
2017-08-03T12:08:58.310Z,97230.69
2017-08-03T12:11:16.405Z,97238.87
2017-08-03T12:13:34.568Z,97235.73
2017-08-03T12:15:53.428Z,97225.79
2017-08-03T12:17:56.863Z,97226.75
2017-08-03T12:20:00.177Z,97219.53
2017-08-03T12:22:05.270Z,97219.94
2017-08-03T12:24:08.360Z,97226.75
2017-08-03T12:26:11.485Z,97224.83
2017-08-03T12:28:14.929Z,97223.62
2017-08-03T12:30:18.206Z,97224.83
2017-08-03T12:32:21.445Z,97213.52
2017-08-03T12:34:24.701Z,97213.36
2017-08-03T12:36:27.862Z,97205.34
2017-08-03T12:38:31.266Z,97206.86
2017-08-03T12:40:34.842Z,97205.89
2017-08-03T12:42:38.051Z,97201.80
2017-08-03T12:44:41.121Z,97208.06
2017-08-03T12:46:44.231Z,97203.75
2017-08-03T12:48:47.486Z,97209.43
2017-08-03T12:50:50.655Z,97195.73
2017-08-03T12:52:54.046Z,97190.92
2017-08-03T12:54:57.278Z,97191.64
2017-08-03T12:57:00.455Z,97182.44
2017-08-03T12:59:04.504Z,97186.90
2017-08-03T13:01:07.944Z,97191.98
2017-08-03T13:03:11.268Z,97191.58
2017-08-03T13:05:14.600Z,97187.64
2017-08-03T13:07:17.752Z,97189.97
2017-08-03T13:09:20.937Z,97183.06
2017-08-03T13:11:24.177Z,97171.03
